KMDH/MDH METAR and TAF weather

Enter ICAO airport designator
Station Type Date Time Source
KMDH METAR 2022/11/30 09:08 UTC NOAA

KMDH 300908Z AUTO 32012G28KT 10SM SCT028 BKN110 02/M03 A3003 RMK AO2 PK WND 33028/0859 T00171033


Station Type Date Time Source
KMDH Decoded METAR 2022/11/30 09:08 UTC NOAA

SOUTHERN ILLINOIS AIRPORT, IL, United States (KMDH) 37-47N 089-15W 130M
Nov 30, 2022 - 04:08 AM EST / 2022.11.30 0908 UTC
Wind: from the NW (320 degrees) at 14 MPH (12 KT) gusting to 32 MPH (28 KT):0
Visibility: 10 mile(s):0
Sky conditions: mostly cloudy
Temperature: 35.1 F (1.7 C)
Dew Point: 26.1 F (-3.3 C)
Relative Humidity: 69%
Pressure (altimeter): 30.03 in. Hg (1016 hPa)
ob: KMDH 300908Z AUTO 32012G28KT 10SM SCT028 BKN110 02/M03 A3003 RMK AO2 PK WND 33028/0859 T00171033
cycle: 9

Station Type Date Time Source
KMDH TAF UTC NOAA

Error!

Example: see airport list